KYKM/YKM METAR and TAF weather

Enter ICAO airport designator
Station Type Date Time Source
KYKM METAR 2021/01/16 02:53 UTC NOAA

KYKM 160253Z 00000KT 10SM CLR 01/M02 A3042 RMK AO2 SLP312 T00061022 51012


Station Type Date Time Source
KYKM Decoded METAR 2021/01/16 02:53 UTC NOAA

YAKIMA AIR TERMINAL, WA, United States (KYKM) 46-34N 120-32W 324M
Jan 15, 2021 - 09:53 PM EST / 2021.01.16 0253 UTC
Wind: Calm:0
Visibility: 10 mile(s):0
Sky conditions: clear
Temperature: 33.1 F (0.6 C)
Dew Point: 28.0 F (-2.2 C)
Relative Humidity: 81%
Pressure (altimeter): 30.42 in. Hg (1030 hPa)
Pressure tendency: 0.04 inches (1.2 hPa) higher than three hours ago
ob: KYKM 160253Z 00000KT 10SM CLR 01/M02 A3042 RMK AO2 SLP312 T00061022 51012
cycle: 3

Station Type Date Time Source
KYKM TAF 2021/01/15 18:22 UTC NOAA

TAF KYKM 151720Z 1518/1618 14003KT P6SM BKN028 BKN080
TEMPO 1518/1522 SCT028 BKN080
FM152300 30003KT P6SM SCT080 SCT250
FM160600 28003KT 5SM BR SKC
FM160800 28003KT 1/2SM FG OVC005

Example: see airport list